sensor_id;sensor_type;location;lat;lon;timestamp;temperature;humidity
76293;DHT22;67256;51.154;4.164;2023-03-04T00:01:06;8.00;61.20
76293;DHT22;67256;51.154;4.164;2023-03-04T00:03:32;8.10;61.10
76293;DHT22;67256;51.154;4.164;2023-03-04T00:05:58;8.10;61.20
76293;DHT22;67256;51.154;4.164;2023-03-04T00:08:24;8.10;61.60
76293;DHT22;67256;51.154;4.164;2023-03-04T00:10:49;8.10;60.90
76293;DHT22;67256;51.154;4.164;2023-03-04T00:13:15;8.20;60.80
76293;DHT22;67256;51.154;4.164;2023-03-04T00:15:42;8.20;60.90
76293;DHT22;67256;51.154;4.164;2023-03-04T00:18:07;8.20;60.60
76293;DHT22;67256;51.154;4.164;2023-03-04T00:20:33;8.20;60.80
76293;DHT22;67256;51.154;4.164;2023-03-04T00:22:58;8.20;60.90
76293;DHT22;67256;51.154;4.164;2023-03-04T00:25:24;8.10;61.10
76293;DHT22;67256;51.154;4.164;2023-03-04T00:27:50;8.10;61.10
76293;DHT22;67256;51.154;4.164;2023-03-04T00:30:15;8.10;61.40
76293;DHT22;67256;51.154;4.164;2023-03-04T00:32:41;8.10;61.20
76293;DHT22;67256;51.154;4.164;2023-03-04T00:35:07;8.10;61.20
76293;DHT22;67256;51.154;4.164;2023-03-04T00:37:33;8.10;61.20
76293;DHT22;67256;51.154;4.164;2023-03-04T00:39:59;8.00;61.30
76293;DHT22;67256;51.154;4.164;2023-03-04T00:42:24;8.10;61.40
76293;DHT22;67256;51.154;4.164;2023-03-04T00:44:50;8.00;61.40
76293;DHT22;67256;51.154;4.164;2023-03-04T00:47:16;8.00;61.60
76293;DHT22;67256;51.154;4.164;2023-03-04T00:49:42;8.00;61.50
76293;DHT22;67256;51.154;4.164;2023-03-04T00:52:07;8.00;61.60
76293;DHT22;67256;51.154;4.164;2023-03-04T00:54:33;8.10;61.50
76293;DHT22;67256;51.154;4.164;2023-03-04T00:57:00;8.10;61.40
76293;DHT22;67256;51.154;4.164;2023-03-04T00:59:25;8.20;61.80
76293;DHT22;67256;51.154;4.164;2023-03-04T01:01:51;8.00;61.50
76293;DHT22;67256;51.154;4.164;2023-03-04T01:04:17;8.00;61.90
76293;DHT22;67256;51.154;4.164;2023-03-04T01:06:42;8.00;62.00
76293;DHT22;67256;51.154;4.164;2023-03-04T01:09:08;7.90;62.10
76293;DHT22;67256;51.154;4.164;2023-03-04T01:11:34;8.00;62.10
76293;DHT22;67256;51.154;4.164;2023-03-04T01:13:59;8.00;61.90
76293;DHT22;67256;51.154;4.164;2023-03-04T01:16:25;8.10;61.60
76293;DHT22;67256;51.154;4.164;2023-03-04T01:18:51;8.10;61.70
76293;DHT22;67256;51.154;4.164;2023-03-04T01:21:17;8.10;61.80
76293;DHT22;67256;51.154;4.164;2023-03-04T01:23:42;7.90;62.40
76293;DHT22;67256;51.154;4.164;2023-03-04T01:26:08;7.90;63.10
76293;DHT22;67256;51.154;4.164;2023-03-04T01:28:34;7.80;63.20
76293;DHT22;67256;51.154;4.164;2023-03-04T01:31:01;7.80;63.50
76293;DHT22;67256;51.154;4.164;2023-03-04T01:33:27;7.80;63.40
76293;DHT22;67256;51.154;4.164;2023-03-04T01:35:53;7.80;63.50
76293;DHT22;67256;51.154;4.164;2023-03-04T01:38:19;7.80;63.90
76293;DHT22;67256;51.154;4.164;2023-03-04T01:40:44;7.70;63.90
76293;DHT22;67256;51.154;4.164;2023-03-04T01:43:16;7.80;63.60
76293;DHT22;67256;51.154;4.164;2023-03-04T01:45:45;7.70;63.80
76293;DHT22;67256;51.154;4.164;2023-03-04T01:48:13;7.40;64.90
76293;DHT22;67256;51.154;4.164;2023-03-04T01:50:41;7.40;65.00
76293;DHT22;67256;51.154;4.164;2023-03-04T01:53:19;7.40;65.10
76293;DHT22;67256;51.154;4.164;2023-03-04T01:55:46;7.40;65.10
76293;DHT22;67256;51.154;4.164;2023-03-04T01:58:12;7.20;66.00
76293;DHT22;67256;51.154;4.164;2023-03-04T02:00:38;7.10;66.50
76293;DHT22;67256;51.154;4.164;2023-03-04T02:03:07;7.00;66.00
76293;DHT22;67256;51.154;4.164;2023-03-04T02:05:37;7.10;66.30
76293;DHT22;67256;51.154;4.164;2023-03-04T02:08:05;7.10;65.90
76293;DHT22;67256;51.154;4.164;2023-03-04T02:10:31;7.20;65.70
76293;DHT22;67256;51.154;4.164;2023-03-04T02:12:58;7.10;65.80
76293;DHT22;67256;51.154;4.164;2023-03-04T02:15:24;7.20;65.90
76293;DHT22;67256;51.154;4.164;2023-03-04T02:17:50;7.20;66.00
76293;DHT22;67256;51.154;4.164;2023-03-04T02:20:33;7.10;65.50
76293;DHT22;67256;51.154;4.164;2023-03-04T02:23:10;6.90;66.20
76293;DHT22;67256;51.154;4.164;2023-03-04T02:25:49;6.80;66.60
76293;DHT22;67256;51.154;4.164;2023-03-04T02:28:17;6.70;67.20
76293;DHT22;67256;51.154;4.164;2023-03-04T02:30:43;6.60;67.60
76293;DHT22;67256;51.154;4.164;2023-03-04T02:33:16;6.70;67.80
76293;DHT22;67256;51.154;4.164;2023-03-04T02:35:43;6.80;67.50
76293;DHT22;67256;51.154;4.164;2023-03-04T02:38:10;7.00;67.30
76293;DHT22;67256;51.154;4.164;2023-03-04T02:40:38;7.10;67.10
76293;DHT22;67256;51.154;4.164;2023-03-04T02:43:05;7.10;67.70
76293;DHT22;67256;51.154;4.164;2023-03-04T02:48:02;7.10;67.90
76293;DHT22;67256;51.154;4.164;2023-03-04T02:50:30;7.20;68.10
76293;DHT22;67256;51.154;4.164;2023-03-04T02:52:57;7.20;68.00
76293;DHT22;67256;51.154;4.164;2023-03-04T02:55:23;7.20;68.00
76293;DHT22;67256;51.154;4.164;2023-03-04T02:57:49;7.20;67.90
76293;DHT22;67256;51.154;4.164;2023-03-04T03:00:15;7.20;68.10
76293;DHT22;67256;51.154;4.164;2023-03-04T03:02:41;7.20;68.00
76293;DHT22;67256;51.154;4.164;2023-03-04T03:05:07;7.20;67.90
76293;DHT22;67256;51.154;4.164;2023-03-04T03:07:33;7.10;68.10
76293;DHT22;67256;51.154;4.164;2023-03-04T03:10:00;7.10;68.40
76293;DHT22;67256;51.154;4.164;2023-03-04T03:12:26;7.10;68.80
76293;DHT22;67256;51.154;4.164;2023-03-04T03:14:52;7.00;68.80
76293;DHT22;67256;51.154;4.164;2023-03-04T03:17:17;7.10;69.40
76293;DHT22;67256;51.154;4.164;2023-03-04T03:19:43;7.10;68.80
76293;DHT22;67256;51.154;4.164;2023-03-04T03:22:09;7.10;68.90
76293;DHT22;67256;51.154;4.164;2023-03-04T03:24:34;7.10;69.10
76293;DHT22;67256;51.154;4.164;2023-03-04T03:27:00;7.00;69.20
76293;DHT22;67256;51.154;4.164;2023-03-04T03:29:26;7.10;69.00
76293;DHT22;67256;51.154;4.164;2023-03-04T03:31:51;7.10;68.70
76293;DHT22;67256;51.154;4.164;2023-03-04T03:34:17;7.10;68.20
76293;DHT22;67256;51.154;4.164;2023-03-04T03:36:43;7.20;67.80
76293;DHT22;67256;51.154;4.164;2023-03-04T03:39:09;7.00;67.80
76293;DHT22;67256;51.154;4.164;2023-03-04T03:41:34;6.90;67.80
76293;DHT22;67256;51.154;4.164;2023-03-04T03:44:00;6.80;68.40
76293;DHT22;67256;51.154;4.164;2023-03-04T03:46:26;6.90;68.70
76293;DHT22;67256;51.154;4.164;2023-03-04T03:48:52;6.90;68.60
76293;DHT22;67256;51.154;4.164;2023-03-04T03:51:17;6.90;68.50
76293;DHT22;67256;51.154;4.164;2023-03-04T03:53:43;6.90;68.70
76293;DHT22;67256;51.154;4.164;2023-03-04T03:56:09;6.90;68.80
76293;DHT22;67256;51.154;4.164;2023-03-04T03:58:34;7.00;68.50
76293;DHT22;67256;51.154;4.164;2023-03-04T04:01:00;7.10;68.00
76293;DHT22;67256;51.154;4.164;2023-03-04T04:03:26;7.10;68.00
76293;DHT22;67256;51.154;4.164;2023-03-04T04:05:51;7.20;67.70
76293;DHT22;67256;51.154;4.164;2023-03-04T04:08:17;7.10;67.60
76293;DHT22;67256;51.154;4.164;2023-03-04T04:10:43;7.10;67.50
76293;DHT22;67256;51.154;4.164;2023-03-04T04:13:09;7.00;67.50
76293;DHT22;67256;51.154;4.164;2023-03-04T04:15:36;7.00;67.30
76293;DHT22;67256;51.154;4.164;2023-03-04T04:18:04;7.00;66.90
76293;DHT22;67256;51.154;4.164;2023-03-04T04:20:29;6.90;67.00
76293;DHT22;67256;51.154;4.164;2023-03-04T04:22:55;7.00;67.00
76293;DHT22;67256;51.154;4.164;2023-03-04T04:25:21;7.00;66.80
76293;DHT22;67256;51.154;4.164;2023-03-04T04:27:47;7.10;66.30
76293;DHT22;67256;51.154;4.164;2023-03-04T04:30:13;6.90;66.70
76293;DHT22;67256;51.154;4.164;2023-03-04T04:32:38;6.90;66.70
76293;DHT22;67256;51.154;4.164;2023-03-04T04:35:05;7.00;66.70
76293;DHT22;67256;51.154;4.164;2023-03-04T04:37:31;7.00;66.40
76293;DHT22;67256;51.154;4.164;2023-03-04T04:39:56;7.10;66.00
76293;DHT22;67256;51.154;4.164;2023-03-04T04:42:22;7.00;66.20
76293;DHT22;67256;51.154;4.164;2023-03-04T04:44:48;7.00;66.20
76293;DHT22;67256;51.154;4.164;2023-03-04T04:47:14;6.90;66.60
76293;DHT22;67256;51.154;4.164;2023-03-04T04:49:40;6.80;66.80
76293;DHT22;67256;51.154;4.164;2023-03-04T04:52:05;6.70;67.20
76293;DHT22;67256;51.154;4.164;2023-03-04T04:54:31;6.60;67.40
76293;DHT22;67256;51.154;4.164;2023-03-04T04:56:57;6.60;67.60
76293;DHT22;67256;51.154;4.164;2023-03-04T04:59:23;6.70;67.50
76293;DHT22;67256;51.154;4.164;2023-03-04T05:01:49;6.70;67.90
76293;DHT22;67256;51.154;4.164;2023-03-04T05:04:14;6.80;67.50
76293;DHT22;67256;51.154;4.164;2023-03-04T05:06:40;6.90;67.10
76293;DHT22;67256;51.154;4.164;2023-03-04T05:09:06;6.90;67.00
76293;DHT22;67256;51.154;4.164;2023-03-04T05:11:32;6.80;67.80
76293;DHT22;67256;51.154;4.164;2023-03-04T05:13:58;6.80;68.20
76293;DHT22;67256;51.154;4.164;2023-03-04T05:16:23;6.80;68.30
76293;DHT22;67256;51.154;4.164;2023-03-04T05:18:49;6.90;69.10
76293;DHT22;67256;51.154;4.164;2023-03-04T05:21:14;6.90;68.70
76293;DHT22;67256;51.154;4.164;2023-03-04T05:23:41;6.90;68.80
76293;DHT22;67256;51.154;4.164;2023-03-04T05:26:10;7.00;68.40
76293;DHT22;67256;51.154;4.164;2023-03-04T05:28:37;7.10;68.10
76293;DHT22;67256;51.154;4.164;2023-03-04T05:31:03;7.20;67.70
76293;DHT22;67256;51.154;4.164;2023-03-04T05:33:29;7.30;67.40
76293;DHT22;67256;51.154;4.164;2023-03-04T05:35:56;7.40;66.80
76293;DHT22;67256;51.154;4.164;2023-03-04T05:38:22;7.40;66.30
76293;DHT22;67256;51.154;4.164;2023-03-04T05:40:48;7.10;66.30
76293;DHT22;67256;51.154;4.164;2023-03-04T05:43:15;6.90;67.00
76293;DHT22;67256;51.154;4.164;2023-03-04T05:45:41;6.80;66.40
76293;DHT22;67256;51.154;4.164;2023-03-04T05:48:07;6.70;67.00
76293;DHT22;67256;51.154;4.164;2023-03-04T05:50:33;6.70;67.20
76293;DHT22;67256;51.154;4.164;2023-03-04T05:53:00;6.70;67.20
76293;DHT22;67256;51.154;4.164;2023-03-04T05:55:26;6.80;67.40
76293;DHT22;67256;51.154;4.164;2023-03-04T05:57:53;6.80;67.30
76293;DHT22;67256;51.154;4.164;2023-03-04T06:00:19;6.90;67.00
76293;DHT22;67256;51.154;4.164;2023-03-04T06:02:45;6.80;67.20
76293;DHT22;67256;51.154;4.164;2023-03-04T06:05:12;6.80;67.50
76293;DHT22;67256;51.154;4.164;2023-03-04T06:07:38;6.80;67.70
76293;DHT22;67256;51.154;4.164;2023-03-04T06:10:05;6.90;67.50
76293;DHT22;67256;51.154;4.164;2023-03-04T06:12:31;7.00;66.70
76293;DHT22;67256;51.154;4.164;2023-03-04T06:14:56;7.10;66.50
76293;DHT22;67256;51.154;4.164;2023-03-04T06:17:23;6.80;66.90
76293;DHT22;67256;51.154;4.164;2023-03-04T06:19:48;6.80;67.30
76293;DHT22;67256;51.154;4.164;2023-03-04T06:22:14;6.90;67.00
76293;DHT22;67256;51.154;4.164;2023-03-04T06:24:40;7.00;66.60
76293;DHT22;67256;51.154;4.164;2023-03-04T06:27:05;7.00;66.70
76293;DHT22;67256;51.154;4.164;2023-03-04T06:29:31;7.00;67.20
76293;DHT22;67256;51.154;4.164;2023-03-04T06:31:57;6.90;67.70
76293;DHT22;67256;51.154;4.164;2023-03-04T06:34:23;6.80;68.30
76293;DHT22;67256;51.154;4.164;2023-03-04T06:36:48;6.90;68.30
76293;DHT22;67256;51.154;4.164;2023-03-04T06:39:14;6.90;68.50
76293;DHT22;67256;51.154;4.164;2023-03-04T06:41:40;6.90;68.40
76293;DHT22;67256;51.154;4.164;2023-03-04T06:44:06;7.00;68.50
76293;DHT22;67256;51.154;4.164;2023-03-04T06:46:33;7.00;68.80
76293;DHT22;67256;51.154;4.164;2023-03-04T06:48:59;7.00;68.60
76293;DHT22;67256;51.154;4.164;2023-03-04T06:51:25;7.00;68.70
76293;DHT22;67256;51.154;4.164;2023-03-04T06:53:51;7.10;68.50
76293;DHT22;67256;51.154;4.164;2023-03-04T06:56:17;7.20;68.60
76293;DHT22;67256;51.154;4.164;2023-03-04T06:58:44;7.20;68.50
76293;DHT22;67256;51.154;4.164;2023-03-04T07:01:14;7.20;68.70
76293;DHT22;67256;51.154;4.164;2023-03-04T07:03:40;7.20;68.80
76293;DHT22;67256;51.154;4.164;2023-03-04T07:06:06;7.10;69.50
76293;DHT22;67256;51.154;4.164;2023-03-04T07:08:32;7.10;69.30
76293;DHT22;67256;51.154;4.164;2023-03-04T07:10:57;7.20;68.80
76293;DHT22;67256;51.154;4.164;2023-03-04T07:13:23;7.30;68.70
76293;DHT22;67256;51.154;4.164;2023-03-04T07:15:49;7.30;68.70
76293;DHT22;67256;51.154;4.164;2023-03-04T07:18:14;7.40;68.60
76293;DHT22;67256;51.154;4.164;2023-03-04T07:20:40;7.40;68.30
76293;DHT22;67256;51.154;4.164;2023-03-04T07:23:06;7.50;68.00
76293;DHT22;67256;51.154;4.164;2023-03-04T07:25:31;7.50;67.90
76293;DHT22;67256;51.154;4.164;2023-03-04T07:27:57;7.60;67.80
76293;DHT22;67256;51.154;4.164;2023-03-04T07:30:23;7.60;67.70
76293;DHT22;67256;51.154;4.164;2023-03-04T07:32:48;7.50;67.80
76293;DHT22;67256;51.154;4.164;2023-03-04T07:35:14;7.50;68.10
76293;DHT22;67256;51.154;4.164;2023-03-04T07:37:40;7.50;68.00
76293;DHT22;67256;51.154;4.164;2023-03-04T07:40:07;7.40;68.00
76293;DHT22;67256;51.154;4.164;2023-03-04T07:42:33;7.30;68.70
76293;DHT22;67256;51.154;4.164;2023-03-04T07:44:59;7.30;69.00
76293;DHT22;67256;51.154;4.164;2023-03-04T07:47:26;7.20;69.30
76293;DHT22;67256;51.154;4.164;2023-03-04T07:49:52;7.20;69.30
76293;DHT22;67256;51.154;4.164;2023-03-04T07:52:18;7.20;69.10
76293;DHT22;67256;51.154;4.164;2023-03-04T07:54:44;7.10;69.00
76293;DHT22;67256;51.154;4.164;2023-03-04T07:57:09;7.10;69.30
76293;DHT22;67256;51.154;4.164;2023-03-04T07:59:35;7.10;68.80
76293;DHT22;67256;51.154;4.164;2023-03-04T08:02:01;7.20;68.00
76293;DHT22;67256;51.154;4.164;2023-03-04T08:04:26;7.30;67.50
76293;DHT22;67256;51.154;4.164;2023-03-04T08:06:52;7.30;67.30
76293;DHT22;67256;51.154;4.164;2023-03-04T08:09:18;7.20;67.20
76293;DHT22;67256;51.154;4.164;2023-03-04T08:11:44;7.20;67.50
76293;DHT22;67256;51.154;4.164;2023-03-04T08:14:12;7.30;67.50
76293;DHT22;67256;51.154;4.164;2023-03-04T08:16:39;7.40;67.20
76293;DHT22;67256;51.154;4.164;2023-03-04T08:19:05;7.40;67.20
76293;DHT22;67256;51.154;4.164;2023-03-04T08:21:32;7.50;67.80
76293;DHT22;67256;51.154;4.164;2023-03-04T08:24:00;7.70;66.90
76293;DHT22;67256;51.154;4.164;2023-03-04T08:26:39;7.50;67.90
76293;DHT22;67256;51.154;4.164;2023-03-04T08:29:11;7.50;68.20
76293;DHT22;67256;51.154;4.164;2023-03-04T08:31:37;7.50;68.80
76293;DHT22;67256;51.154;4.164;2023-03-04T08:34:04;7.50;68.60
76293;DHT22;67256;51.154;4.164;2023-03-04T08:36:30;7.40;69.50
76293;DHT22;67256;51.154;4.164;2023-03-04T08:38:56;7.40;69.90
76293;DHT22;67256;51.154;4.164;2023-03-04T08:41:22;7.20;70.60
76293;DHT22;67256;51.154;4.164;2023-03-04T08:43:49;7.10;71.30
76293;DHT22;67256;51.154;4.164;2023-03-04T08:46:15;7.20;71.20
76293;DHT22;67256;51.154;4.164;2023-03-04T08:48:41;7.30;70.90
76293;DHT22;67256;51.154;4.164;2023-03-04T08:51:08;7.50;70.30
76293;DHT22;67256;51.154;4.164;2023-03-04T08:53:35;7.50;69.90
76293;DHT22;67256;51.154;4.164;2023-03-04T08:56:02;7.60;69.60
76293;DHT22;67256;51.154;4.164;2023-03-04T08:58:27;7.60;69.30
76293;DHT22;67256;51.154;4.164;2023-03-04T09:00:53;7.60;69.30
76293;DHT22;67256;51.154;4.164;2023-03-04T09:03:19;7.70;68.90
76293;DHT22;67256;51.154;4.164;2023-03-04T09:05:46;7.80;68.90
76293;DHT22;67256;51.154;4.164;2023-03-04T09:08:13;7.70;68.90
76293;DHT22;67256;51.154;4.164;2023-03-04T09:10:39;7.80;69.30
76293;DHT22;67256;51.154;4.164;2023-03-04T09:13:05;7.80;69.10
76293;DHT22;67256;51.154;4.164;2023-03-04T09:15:32;7.90;68.80
76293;DHT22;67256;51.154;4.164;2023-03-04T09:18:01;7.90;68.70
76293;DHT22;67256;51.154;4.164;2023-03-04T09:20:28;8.00;68.40
76293;DHT22;67256;51.154;4.164;2023-03-04T09:22:54;7.90;69.00
76293;DHT22;67256;51.154;4.164;2023-03-04T09:25:19;7.90;69.10
76293;DHT22;67256;51.154;4.164;2023-03-04T09:27:45;8.10;68.60
76293;DHT22;67256;51.154;4.164;2023-03-04T09:30:11;7.80;69.30
76293;DHT22;67256;51.154;4.164;2023-03-04T09:32:37;8.00;69.00
76293;DHT22;67256;51.154;4.164;2023-03-04T09:35:04;8.10;69.00
76293;DHT22;67256;51.154;4.164;2023-03-04T09:37:30;7.70;70.70
76293;DHT22;67256;51.154;4.164;2023-03-04T09:39:56;7.40;71.40
76293;DHT22;67256;51.154;4.164;2023-03-04T09:42:43;7.30;72.20
76293;DHT22;67256;51.154;4.164;2023-03-04T09:45:15;7.50;71.40
76293;DHT22;67256;51.154;4.164;2023-03-04T09:47:43;7.50;71.20
76293;DHT22;67256;51.154;4.164;2023-03-04T09:50:11;7.40;71.60
76293;DHT22;67256;51.154;4.164;2023-03-04T09:55:22;7.50;71.40
76293;DHT22;67256;51.154;4.164;2023-03-04T10:05:43;7.60;71.10
76293;DHT22;67256;51.154;4.164;2023-03-04T10:10:54;7.60;71.30
76293;DHT22;67256;51.154;4.164;2023-03-04T10:14:01;7.50;71.50
76293;DHT22;67256;51.154;4.164;2023-03-04T10:16:41;7.60;71.00
76293;DHT22;67256;51.154;4.164;2023-03-04T10:22:14;8.10;70.10
76293;DHT22;67256;51.154;4.164;2023-03-04T10:24:29;8.10;69.50
76293;DHT22;67256;51.154;4.164;2023-03-04T10:27:01;8.20;68.60
76293;DHT22;67256;51.154;4.164;2023-03-04T10:29:30;8.30;68.70
76293;DHT22;67256;51.154;4.164;2023-03-04T10:31:57;8.20;68.60
76293;DHT22;67256;51.154;4.164;2023-03-04T10:34:23;8.20;68.50
76293;DHT22;67256;51.154;4.164;2023-03-04T10:36:59;7.90;69.60
76293;DHT22;67256;51.154;4.164;2023-03-04T10:39:36;8.10;69.50
76293;DHT22;67256;51.154;4.164;2023-03-04T10:44:57;8.20;68.80
76293;DHT22;67256;51.154;4.164;2023-03-04T10:47:25;8.20;68.50
76293;DHT22;67256;51.154;4.164;2023-03-04T10:49:59;8.20;68.60
76293;DHT22;67256;51.154;4.164;2023-03-04T10:52:26;8.20;68.70
76293;DHT22;67256;51.154;4.164;2023-03-04T10:54:56;8.20;68.70
76293;DHT22;67256;51.154;4.164;2023-03-04T10:57:33;8.60;67.60
76293;DHT22;67256;51.154;4.164;2023-03-04T11:00:22;8.30;68.00
76293;DHT22;67256;51.154;4.164;2023-03-04T11:02:47;8.50;68.10
76293;DHT22;67256;51.154;4.164;2023-03-04T11:05:23;8.50;67.80
76293;DHT22;67256;51.154;4.164;2023-03-04T11:07:58;8.40;68.20
76293;DHT22;67256;51.154;4.164;2023-03-04T11:16:02;8.40;68.10
76293;DHT22;67256;51.154;4.164;2023-03-04T11:21:05;8.30;69.20
76293;DHT22;67256;51.154;4.164;2023-03-04T11:23:47;8.40;68.60
76293;DHT22;67256;51.154;4.164;2023-03-04T11:26:20;8.60;68.00
76293;DHT22;67256;51.154;4.164;2023-03-04T11:29:59;8.60;68.30
76293;DHT22;67256;51.154;4.164;2023-03-04T11:31:55;8.40;69.40
76293;DHT22;67256;51.154;4.164;2023-03-04T11:45:38;8.80;67.90
76293;DHT22;67256;51.154;4.164;2023-03-04T11:51:02;8.90;66.80
76293;DHT22;67256;51.154;4.164;2023-03-04T11:56:45;8.60;67.60
76293;DHT22;67256;51.154;4.164;2023-03-04T11:59:43;8.70;67.50
76293;DHT22;67256;51.154;4.164;2023-03-04T12:02:11;8.60;67.70
76293;DHT22;67256;51.154;4.164;2023-03-04T12:32:02;8.60;72.00
76293;DHT22;67256;51.154;4.164;2023-03-04T12:34:31;8.40;73.10
76293;DHT22;67256;51.154;4.164;2023-03-04T12:39:33;8.40;74.10
76293;DHT22;67256;51.154;4.164;2023-03-04T12:53:34;8.80;73.50
76293;DHT22;67256;51.154;4.164;2023-03-04T12:56:02;8.90;72.50
76293;DHT22;67256;51.154;4.164;2023-03-04T12:58:31;8.90;71.30
76293;DHT22;67256;51.154;4.164;2023-03-04T13:03:57;9.10;70.00
76293;DHT22;67256;51.154;4.164;2023-03-04T13:16:56;8.70;69.60
76293;DHT22;67256;51.154;4.164;2023-03-04T13:19:43;8.70;69.40
76293;DHT22;67256;51.154;4.164;2023-03-04T13:22:40;8.80;69.90
76293;DHT22;67256;51.154;4.164;2023-03-04T13:25:28;8.70;70.40
76293;DHT22;67256;51.154;4.164;2023-03-04T13:51:38;8.50;72.60
76293;DHT22;67256;51.154;4.164;2023-03-04T13:54:26;8.40;73.20
76293;DHT22;67256;51.154;4.164;2023-03-04T14:02:16;8.50;73.40
76293;DHT22;67256;51.154;4.164;2023-03-04T14:10:00;8.60;73.20
76293;DHT22;67256;51.154;4.164;2023-03-04T14:12:31;8.60;72.40
76293;DHT22;67256;51.154;4.164;2023-03-04T14:15:04;8.60;71.90
76293;DHT22;67256;51.154;4.164;2023-03-04T14:17:34;8.60;72.40
76293;DHT22;67256;51.154;4.164;2023-03-04T14:20:05;8.60;72.20
76293;DHT22;67256;51.154;4.164;2023-03-04T14:22:42;8.70;70.80
76293;DHT22;67256;51.154;4.164;2023-03-04T14:25:22;8.70;70.50
76293;DHT22;67256;51.154;4.164;2023-03-04T14:27:48;8.80;70.00
76293;DHT22;67256;51.154;4.164;2023-03-04T14:30:34;8.70;70.70
76293;DHT22;67256;51.154;4.164;2023-03-04T14:33:00;8.60;71.20
76293;DHT22;67256;51.154;4.164;2023-03-04T14:35:30;8.60;71.40
76293;DHT22;67256;51.154;4.164;2023-03-04T14:38:03;8.60;71.40
76293;DHT22;67256;51.154;4.164;2023-03-04T14:40:41;8.50;72.10
76293;DHT22;67256;51.154;4.164;2023-03-04T14:43:19;8.40;72.30
76293;DHT22;67256;51.154;4.164;2023-03-04T14:45:49;8.40;72.00
76293;DHT22;67256;51.154;4.164;2023-03-04T14:48:27;8.40;72.30
76293;DHT22;67256;51.154;4.164;2023-03-04T14:50:54;8.50;72.40
76293;DHT22;67256;51.154;4.164;2023-03-04T14:53:22;8.60;72.00
76293;DHT22;67256;51.154;4.164;2023-03-04T14:55:59;8.60;72.30
76293;DHT22;67256;51.154;4.164;2023-03-04T14:58:28;8.60;71.80
76293;DHT22;67256;51.154;4.164;2023-03-04T15:01:22;8.60;71.80
76293;DHT22;67256;51.154;4.164;2023-03-04T15:06:24;8.50;72.20
76293;DHT22;67256;51.154;4.164;2023-03-04T15:09:01;8.60;72.00
76293;DHT22;67256;51.154;4.164;2023-03-04T15:22:55;8.90;72.10
76293;DHT22;67256;51.154;4.164;2023-03-04T15:25:22;8.90;72.00
76293;DHT22;67256;51.154;4.164;2023-03-04T15:27:49;8.90;71.50
76293;DHT22;67256;51.154;4.164;2023-03-04T15:32:46;8.80;71.30
76293;DHT22;67256;51.154;4.164;2023-03-04T15:35:12;8.70;72.20
76293;DHT22;67256;51.154;4.164;2023-03-04T15:37:39;8.70;72.70
76293;DHT22;67256;51.154;4.164;2023-03-04T15:40:13;8.70;72.90
76293;DHT22;67256;51.154;4.164;2023-03-04T15:42:39;8.80;73.10
76293;DHT22;67256;51.154;4.164;2023-03-04T15:45:24;8.80;73.10
76293;DHT22;67256;51.154;4.164;2023-03-04T15:47:50;8.80;73.70
76293;DHT22;67256;51.154;4.164;2023-03-04T15:50:18;8.70;74.30
76293;DHT22;67256;51.154;4.164;2023-03-04T15:52:47;8.60;74.20
76293;DHT22;67256;51.154;4.164;2023-03-04T15:55:18;8.60;74.10
76293;DHT22;67256;51.154;4.164;2023-03-04T15:57:47;8.60;74.50
76293;DHT22;67256;51.154;4.164;2023-03-04T16:00:14;8.70;74.60
76293;DHT22;67256;51.154;4.164;2023-03-04T16:02:40;8.80;73.70
76293;DHT22;67256;51.154;4.164;2023-03-04T16:05:07;9.00;72.90
76293;DHT22;67256;51.154;4.164;2023-03-04T16:07:33;9.00;72.80
76293;DHT22;67256;51.154;4.164;2023-03-04T16:10:04;9.00;72.50
76293;DHT22;67256;51.154;4.164;2023-03-04T16:12:31;9.20;72.30
76293;DHT22;67256;51.154;4.164;2023-03-04T16:14:57;9.00;72.30
76293;DHT22;67256;51.154;4.164;2023-03-04T16:17:23;8.90;73.00
76293;DHT22;67256;51.154;4.164;2023-03-04T16:19:49;8.90;73.10
76293;DHT22;67256;51.154;4.164;2023-03-04T16:22:16;8.90;72.50
76293;DHT22;67256;51.154;4.164;2023-03-04T16:24:44;8.80;72.90
76293;DHT22;67256;51.154;4.164;2023-03-04T16:27:12;8.70;73.30
76293;DHT22;67256;51.154;4.164;2023-03-04T16:29:38;8.80;73.90
76293;DHT22;67256;51.154;4.164;2023-03-04T16:32:04;8.80;73.40
76293;DHT22;67256;51.154;4.164;2023-03-04T16:34:30;8.70;73.00
76293;DHT22;67256;51.154;4.164;2023-03-04T16:36:56;8.70;73.00
76293;DHT22;67256;51.154;4.164;2023-03-04T16:39:23;8.70;73.20
76293;DHT22;67256;51.154;4.164;2023-03-04T16:41:52;8.80;73.10
76293;DHT22;67256;51.154;4.164;2023-03-04T16:44:18;8.80;72.90
76293;DHT22;67256;51.154;4.164;2023-03-04T16:46:44;8.80;72.70
76293;DHT22;67256;51.154;4.164;2023-03-04T16:49:09;8.80;73.00
76293;DHT22;67256;51.154;4.164;2023-03-04T16:51:48;8.80;72.90
76293;DHT22;67256;51.154;4.164;2023-03-04T16:54:23;8.70;73.20
76293;DHT22;67256;51.154;4.164;2023-03-04T16:56:52;8.70;73.20
76293;DHT22;67256;51.154;4.164;2023-03-04T16:59:18;8.70;73.00
76293;DHT22;67256;51.154;4.164;2023-03-04T17:01:44;8.70;71.60
76293;DHT22;67256;51.154;4.164;2023-03-04T17:04:09;8.60;71.30
76293;DHT22;67256;51.154;4.164;2023-03-04T17:06:35;8.60;71.10
76293;DHT22;67256;51.154;4.164;2023-03-04T17:09:08;8.50;71.10
76293;DHT22;67256;51.154;4.164;2023-03-04T17:11:34;8.50;70.80
76293;DHT22;67256;51.154;4.164;2023-03-04T17:14:00;8.50;70.90
76293;DHT22;67256;51.154;4.164;2023-03-04T17:16:26;8.40;70.90
76293;DHT22;67256;51.154;4.164;2023-03-04T17:18:54;8.40;71.20
76293;DHT22;67256;51.154;4.164;2023-03-04T17:21:23;8.40;71.10
76293;DHT22;67256;51.154;4.164;2023-03-04T17:23:49;8.40;70.60
76293;DHT22;67256;51.154;4.164;2023-03-04T17:26:16;8.50;70.10
76293;DHT22;67256;51.154;4.164;2023-03-04T17:28:46;8.50;70.00
76293;DHT22;67256;51.154;4.164;2023-03-04T17:31:13;8.50;69.90
76293;DHT22;67256;51.154;4.164;2023-03-04T17:33:40;8.60;69.60
76293;DHT22;67256;51.154;4.164;2023-03-04T17:36:06;8.60;69.30
76293;DHT22;67256;51.154;4.164;2023-03-04T17:38:32;8.60;69.10
76293;DHT22;67256;51.154;4.164;2023-03-04T17:41:03;8.60;68.80
76293;DHT22;67256;51.154;4.164;2023-03-04T17:43:29;8.50;69.20
76293;DHT22;67256;51.154;4.164;2023-03-04T17:46:05;8.40;69.60
76293;DHT22;67256;51.154;4.164;2023-03-04T17:48:32;8.30;70.30
76293;DHT22;67256;51.154;4.164;2023-03-04T17:50:58;8.30;70.60
76293;DHT22;67256;51.154;4.164;2023-03-04T17:53:24;8.20;71.20
76293;DHT22;67256;51.154;4.164;2023-03-04T17:55:58;8.10;71.70
76293;DHT22;67256;51.154;4.164;2023-03-04T17:58:29;8.10;71.30
76293;DHT22;67256;51.154;4.164;2023-03-04T18:01:05;8.10;71.40
76293;DHT22;67256;51.154;4.164;2023-03-04T18:03:32;8.10;71.20
76293;DHT22;67256;51.154;4.164;2023-03-04T18:05:58;8.10;70.80
76293;DHT22;67256;51.154;4.164;2023-03-04T18:08:23;8.10;70.80
76293;DHT22;67256;51.154;4.164;2023-03-04T18:10:49;8.20;70.40
76293;DHT22;67256;51.154;4.164;2023-03-04T18:13:15;8.20;70.20
76293;DHT22;67256;51.154;4.164;2023-03-04T18:15:41;8.30;70.10
76293;DHT22;67256;51.154;4.164;2023-03-04T18:18:07;8.30;70.00
76293;DHT22;67256;51.154;4.164;2023-03-04T18:20:32;8.20;69.30
76293;DHT22;67256;51.154;4.164;2023-03-04T18:22:58;8.20;69.10